Time;durP1;ratioP1;P1;durP2;ratioP2;P2;SDS_P1;SDS_P2;PMS_P1;PMS_P2;Temp;Humidity;BMP_temperature;BMP_pressure;BME280_temperature;BME280_humidity;BME280_pressure;Samples;Min_cycle;Max_cycle;Signal;HPM_P1;HPM_P2
2022/12/02 00:01:26;;;;;;;27.92;11.57;;;4.60;99.90;;;;;;5060058;28;20553;-44
2022/12/02 00:03:52;;;;;;;25.70;11.90;;;4.60;99.90;;;;;;5053597;28;20580;-42
2022/12/02 00:06:29;;;;;;;27.52;12.13;;;4.60;99.90;;;;;;5057212;28;20032;-45
2022/12/02 00:09:15;;;;;;;25.75;10.93;;;4.60;99.90;;;;;;5059225;28;20041;-42
2022/12/02 00:11:41;;;;;;;27.20;11.13;;;4.60;99.90;;;;;;5058102;28;20111;-42
2022/12/02 00:14:21;;;;;;;27.60;12.27;;;4.50;99.90;;;;;;5057493;28;20072;-42
2022/12/02 00:16:48;;;;;;;24.25;10.30;;;4.60;99.90;;;;;;5065169;28;20106;-43
2022/12/02 00:19:13;;;;;;;24.88;10.88;;;4.50;99.90;;;;;;5061293;28;20119;-43
2022/12/02 00:21:39;;;;;;;26.25;10.70;;;4.50;99.90;;;;;;5063462;28;20135;-43
2022/12/02 00:24:05;;;;;;;26.10;11.02;;;4.50;99.90;;;;;;5062163;28;20076;-43
2022/12/02 00:26:30;;;;;;;26.67;11.15;;;4.50;99.90;;;;;;5061347;28;20036;-43
2022/12/02 00:28:56;;;;;;;28.88;12.35;;;4.50;99.90;;;;;;5067009;28;20076;-45
2022/12/02 00:31:22;;;;;;;27.55;11.75;;;4.50;99.90;;;;;;5056954;28;20069;-43
2022/12/02 00:33:48;;;;;;;27.77;11.57;;;4.50;99.90;;;;;;5071136;28;20120;-43
2022/12/02 00:36:14;;;;;;;29.30;11.10;;;4.50;99.90;;;;;;5063978;28;20055;-41
2022/12/02 00:38:40;;;;;;;24.88;10.70;;;4.50;99.90;;;;;;5067733;28;20033;-45
2022/12/02 00:41:06;;;;;;;24.15;11.80;;;4.40;99.90;;;;;;5059457;28;20055;-43
2022/12/02 00:46:31;;;;;;;23.80;10.43;;;4.40;99.90;;;;;;5056220;28;20454;-42
2022/12/02 00:48:58;;;;;;;29.30;11.80;;;4.40;99.90;;;;;;5059393;28;20040;-45
2022/12/02 00:51:24;;;;;;;23.60;10.40;;;4.40;99.90;;;;;;5062721;28;20029;-45
2022/12/02 00:53:49;;;;;;;23.67;10.48;;;4.30;99.90;;;;;;5058407;28;20067;-44
2022/12/02 00:56:15;;;;;;;28.00;11.20;;;4.30;99.90;;;;;;5063009;28;20120;-43
2022/12/02 00:58:41;;;;;;;29.77;11.63;;;4.30;99.90;;;;;;5061210;28;20039;-45
2022/12/02 01:01:06;;;;;;;26.58;11.55;;;4.30;99.90;;;;;;5062384;28;20040;-45
2022/12/02 01:03:32;;;;;;;26.67;10.63;;;4.20;99.90;;;;;;5056210;28;20041;-44
2022/12/02 01:05:58;;;;;;;28.50;12.18;;;4.20;99.90;;;;;;5061761;28;20119;-42
2022/12/02 01:08:26;;;;;;;25.17;11.23;;;4.20;99.90;;;;;;5061860;28;20031;-44
2022/12/02 01:10:52;;;;;;;26.30;10.50;;;4.10;99.90;;;;;;5057616;28;20037;-45
2022/12/02 01:13:18;;;;;;;26.85;10.40;;;4.10;99.90;;;;;;5059467;28;20441;-44
2022/12/02 01:15:44;;;;;;;28.85;11.57;;;4.10;99.90;;;;;;5055894;28;20122;-41
2022/12/02 01:18:10;;;;;;;27.10;11.18;;;4.10;99.90;;;;;;5062652;28;20067;-44
2022/12/02 01:20:35;;;;;;;29.00;11.35;;;4.10;99.90;;;;;;5056967;28;20047;-43
2022/12/02 01:23:01;;;;;;;30.10;12.18;;;4.10;99.90;;;;;;5073824;28;20040;-44
2022/12/02 01:25:27;;;;;;;25.75;11.35;;;4.10;99.90;;;;;;5055497;28;22054;-44
2022/12/02 01:27:52;;;;;;;27.60;11.57;;;4.10;99.90;;;;;;5058650;28;20086;-42
2022/12/02 01:30:18;;;;;;;25.10;10.65;;;4.10;99.90;;;;;;5056039;28;20048;-43
2022/12/02 01:32:44;;;;;;;23.73;10.90;;;4.10;99.90;;;;;;5053873;28;20029;-42
2022/12/02 01:35:10;;;;;;;31.27;12.63;;;4.10;99.90;;;;;;5059069;28;20036;-43
2022/12/02 01:37:36;;;;;;;29.85;10.77;;;4.10;99.90;;;;;;5057650;28;20407;-42
2022/12/02 01:40:03;;;;;;;26.13;11.63;;;4.10;99.90;;;;;;5061521;28;20041;-42
2022/12/02 01:42:29;;;;;;;28.80;11.73;;;4.10;99.90;;;;;;5056087;28;20056;-46
2022/12/02 01:44:55;;;;;;;28.80;12.75;;;4.10;99.90;;;;;;5063845;28;20041;-44
2022/12/02 01:47:20;;;;;;;27.48;11.70;;;4.00;99.90;;;;;;5056607;28;20506;-44
2022/12/02 01:49:46;;;;;;;28.50;12.40;;;4.10;99.90;;;;;;5058218;28;20032;-45
2022/12/02 01:52:12;;;;;;;26.98;11.48;;;4.00;99.90;;;;;;5060041;28;20037;-43
2022/12/02 01:54:38;;;;;;;29.38;11.38;;;4.00;99.90;;;;;;5057776;28;20036;-43
2022/12/02 01:57:09;;;;;;;30.60;12.57;;;4.00;99.90;;;;;;5059882;28;20674;-43
2022/12/02 01:59:35;;;;;;;34.13;13.20;;;4.00;99.90;;;;;;5060531;28;20068;-42
2022/12/02 02:02:00;;;;;;;28.83;12.20;;;4.00;99.90;;;;;;5054809;28;20068;-43
2022/12/02 02:04:26;;;;;;;28.92;12.38;;;4.00;99.90;;;;;;5056376;28;20051;-43
2022/12/02 02:06:52;;;;;;;29.45;11.70;;;4.00;99.90;;;;;;5063759;28;21068;-43
2022/12/02 02:09:18;;;;;;;26.27;10.65;;;4.00;99.90;;;;;;5059010;28;20123;-45
2022/12/02 02:11:43;;;;;;;31.05;12.70;;;4.00;99.90;;;;;;5059286;28;20037;-46
2022/12/02 02:14:12;;;;;;;30.15;11.25;;;4.00;99.90;;;;;;5060896;28;20519;-44
2022/12/02 02:16:38;;;;;;;28.25;11.27;;;3.90;99.90;;;;;;5063459;28;20567;-41
2022/12/02 02:19:09;;;;;;;27.08;11.05;;;3.90;99.90;;;;;;5059240;28;20051;-46
2022/12/02 02:21:41;;;;;;;30.35;10.88;;;3.90;99.90;;;;;;5054190;28;20060;-45
2022/12/02 02:24:07;;;;;;;29.17;11.73;;;3.90;99.90;;;;;;5058935;28;20037;-42
2022/12/02 02:26:32;;;;;;;31.60;11.63;;;3.90;99.90;;;;;;5054966;28;20059;-41
2022/12/02 02:28:58;;;;;;;32.38;12.27;;;3.90;99.90;;;;;;5060365;28;20041;-42
2022/12/02 02:31:24;;;;;;;32.65;11.98;;;3.90;99.90;;;;;;5057166;28;20548;-45
2022/12/02 02:33:50;;;;;;;30.63;10.93;;;3.90;99.90;;;;;;5058641;28;20041;-41
2022/12/02 02:36:15;;;;;;;31.02;12.00;;;3.90;99.90;;;;;;5055522;28;20033;-41
2022/12/02 02:38:41;;;;;;;31.08;11.52;;;3.90;99.90;;;;;;5064303;28;20378;-46
2022/12/02 02:41:08;;;;;;;27.65;11.00;;;3.90;99.90;;;;;;5057510;28;20091;-49
2022/12/02 02:43:35;;;;;;;27.15;11.73;;;3.90;99.90;;;;;;5058631;28;20537;-47
2022/12/02 02:46:02;;;;;;;28.65;12.55;;;3.90;99.90;;;;;;5057380;28;20106;-46
2022/12/02 02:48:28;;;;;;;29.50;11.40;;;3.90;99.90;;;;;;5062254;28;20048;-42
2022/12/02 02:50:55;;;;;;;31.85;12.30;;;3.90;99.90;;;;;;5060463;28;20128;-42
2022/12/02 02:53:24;;;;;;;32.30;12.38;;;3.90;99.90;;;;;;5060088;28;20036;-41
2022/12/02 02:55:50;;;;;;;26.00;11.13;;;3.80;99.90;;;;;;5052106;28;21022;-42
2022/12/02 02:58:19;;;;;;;33.97;12.60;;;3.80;99.90;;;;;;5065822;28;20386;-44
2022/12/02 03:00:51;;;;;;;30.05;11.85;;;3.80;99.90;;;;;;5060311;28;20407;-42
2022/12/02 03:03:20;;;;;;;26.90;11.05;;;3.80;99.90;;;;;;5059929;28;20036;-43
2022/12/02 03:05:47;;;;;;;26.35;11.27;;;3.80;99.90;;;;;;5066222;28;20489;-42
2022/12/02 03:08:14;;;;;;;28.02;11.77;;;3.80;99.90;;;;;;5065542;28;20129;-43
2022/12/02 03:10:40;;;;;;;26.92;11.40;;;3.70;99.90;;;;;;5060578;28;20041;-40
2022/12/02 03:13:06;;;;;;;26.50;9.98;;;3.70;99.90;;;;;;5056325;28;20093;-43
2022/12/02 03:15:32;;;;;;;25.67;10.98;;;3.70;99.90;;;;;;5064595;28;20036;-44
2022/12/02 03:17:58;;;;;;;31.08;12.00;;;3.70;99.90;;;;;;5066737;28;20040;-44
2022/12/02 03:20:24;;;;;;;26.70;11.20;;;3.70;99.90;;;;;;5055266;28;20032;-43
2022/12/02 03:22:50;;;;;;;25.85;11.45;;;3.70;99.90;;;;;;5060148;28;20140;-43
2022/12/02 03:25:16;;;;;;;26.58;10.95;;;3.60;99.90;;;;;;5059686;28;20123;-54
2022/12/02 03:27:42;;;;;;;25.20;11.15;;;3.70;99.90;;;;;;5060781;28;20502;-43
2022/12/02 03:30:09;;;;;;;25.00;11.23;;;3.70;99.90;;;;;;5065187;28;20043;-43
2022/12/02 03:32:35;;;;;;;27.45;10.80;;;3.70;99.90;;;;;;5056659;28;20035;-43
2022/12/02 03:35:01;;;;;;;30.40;11.20;;;3.60;99.90;;;;;;5057827;28;20054;-44
2022/12/02 03:37:27;;;;;;;26.88;9.98;;;3.60;99.90;;;;;;5063188;28;20098;-45
2022/12/02 03:39:53;;;;;;;25.13;10.05;;;3.60;99.90;;;;;;5061525;28;20068;-41
2022/12/02 03:42:19;;;;;;;22.35;9.15;;;3.60;99.90;;;;;;5063468;28;20219;-43
2022/12/02 03:44:45;;;;;;;24.50;8.85;;;3.60;99.90;;;;;;5062792;28;20422;-43
2022/12/02 03:47:11;;;;;;;24.10;9.45;;;3.60;99.90;;;;;;5061045;28;20040;-42
2022/12/02 03:49:37;;;;;;;20.92;8.32;;;3.60;99.90;;;;;;5063374;28;20044;-43
2022/12/02 03:52:03;;;;;;;22.60;8.50;;;3.60;99.90;;;;;;5062649;28;20036;-43
2022/12/02 03:54:29;;;;;;;19.83;9.30;;;3.60;99.90;;;;;;5062875;28;20047;-43
2022/12/02 03:56:55;;;;;;;22.67;9.20;;;3.60;99.90;;;;;;5064459;28;20044;-40
2022/12/02 03:59:24;;;;;;;17.75;7.57;;;3.60;99.90;;;;;;5057302;28;20118;-42
2022/12/02 04:01:50;;;;;;;22.77;9.07;;;3.60;99.90;;;;;;5058157;28;20048;-42
2022/12/02 04:04:16;;;;;;;16.45;7.63;;;3.50;99.90;;;;;;5060936;28;20044;-44
2022/12/02 04:06:41;;;;;;;22.35;9.18;;;3.50;99.90;;;;;;5061394;28;20513;-44
2022/12/02 04:09:07;;;;;;;19.52;8.70;;;3.50;99.90;;;;;;5055942;28;20041;-42
2022/12/02 04:11:33;;;;;;;21.95;9.27;;;3.50;99.90;;;;;;5066751;28;20450;-43
2022/12/02 04:13:58;;;;;;;18.00;8.20;;;3.50;99.90;;;;;;5062194;28;20039;-41
2022/12/02 04:16:24;;;;;;;22.75;8.75;;;3.40;99.90;;;;;;5062136;28;20564;-44
2022/12/02 04:18:50;;;;;;;20.23;8.27;;;3.40;99.90;;;;;;5065181;28;20512;-39
2022/12/02 04:21:15;;;;;;;21.25;8.38;;;3.40;99.90;;;;;;5066161;28;20405;-43
2022/12/02 04:23:41;;;;;;;20.02;8.77;;;3.40;99.90;;;;;;5062388;28;20265;-43
2022/12/02 04:26:07;;;;;;;17.52;7.63;;;3.40;99.90;;;;;;5060052;28;20120;-44
2022/12/02 04:28:33;;;;;;;21.45;8.25;;;3.40;99.90;;;;;;5061438;28;20507;-42
2022/12/02 04:30:59;;;;;;;18.08;7.95;;;3.40;99.90;;;;;;5058096;28;20037;-45
2022/12/02 04:33:24;;;;;;;18.30;7.55;;;3.40;99.90;;;;;;5057784;28;20478;-43
2022/12/02 04:35:50;;;;;;;17.60;8.05;;;3.40;99.90;;;;;;5059094;28;20036;-44
2022/12/02 04:38:16;;;;;;;20.02;7.70;;;3.40;99.90;;;;;;5059237;28;20029;-41
2022/12/02 04:40:42;;;;;;;20.20;8.45;;;3.30;99.90;;;;;;5060005;28;20110;-41
2022/12/02 04:43:07;;;;;;;19.90;8.25;;;3.30;99.90;;;;;;5060825;28;20051;-42
2022/12/02 04:45:33;;;;;;;22.17;8.43;;;3.30;99.90;;;;;;5061390;28;20159;-41
2022/12/02 04:47:59;;;;;;;18.02;7.55;;;3.30;99.90;;;;;;5063360;28;20060;-42
2022/12/02 04:50:24;;;;;;;16.67;7.60;;;3.20;99.90;;;;;;5056553;28;20044;-40
2022/12/02 04:52:50;;;;;;;18.58;7.45;;;3.20;99.90;;;;;;5061260;28;20058;-41
2022/12/02 04:55:15;;;;;;;18.45;7.35;;;3.20;99.90;;;;;;5057452;28;20028;-43
2022/12/02 04:57:41;;;;;;;14.90;7.32;;;3.20;99.90;;;;;;5062722;28;20033;-40
2022/12/02 05:00:08;;;;;;;20.10;8.00;;;3.20;99.90;;;;;;5059891;28;20037;-43
2022/12/02 05:02:34;;;;;;;17.10;7.72;;;3.20;99.90;;;;;;5061396;28;20418;-42
2022/12/02 05:04:59;;;;;;;17.90;7.85;;;3.10;99.90;;;;;;5059990;28;20037;-39
2022/12/02 05:07:25;;;;;;;17.40;7.10;;;3.10;99.90;;;;;;5066876;28;20044;-43
2022/12/02 05:09:51;;;;;;;14.90;6.50;;;3.10;99.90;;;;;;5059628;28;20105;-41
2022/12/02 05:12:17;;;;;;;16.75;6.90;;;3.10;99.90;;;;;;5060775;28;20090;-46
2022/12/02 05:14:42;;;;;;;16.13;6.82;;;3.10;99.90;;;;;;5062011;28;20437;-40
2022/12/02 05:17:08;;;;;;;18.40;7.72;;;3.10;99.90;;;;;;5058987;28;20032;-43
2022/12/02 05:19:34;;;;;;;16.60;7.25;;;3.10;99.90;;;;;;5055254;28;20036;-41
2022/12/02 05:21:59;;;;;;;15.35;6.35;;;3.00;99.90;;;;;;5059641;28;20041;-43
2022/12/02 05:24:25;;;;;;;17.05;6.95;;;3.10;99.90;;;;;;5058323;28;20041;-45
2022/12/02 05:26:51;;;;;;;18.05;7.25;;;3.00;99.90;;;;;;5060237;28;20094;-44
2022/12/02 05:29:16;;;;;;;17.70;6.88;;;3.00;99.90;;;;;;5059896;28;20048;-43
2022/12/02 05:31:42;;;;;;;14.63;6.68;;;3.00;99.90;;;;;;5060334;28;20523;-42
2022/12/02 05:34:07;;;;;;;17.23;7.55;;;3.00;99.90;;;;;;5056031;28;20102;-41
2022/12/02 05:36:33;;;;;;;23.80;7.65;;;3.10;99.90;;;;;;5055998;28;20664;-42
2022/12/02 05:38:59;;;;;;;16.95;6.75;;;3.00;99.90;;;;;;5060054;28;20517;-42
2022/12/02 05:41:24;;;;;;;17.67;6.65;;;3.00;99.90;;;;;;5061872;28;20057;-45
2022/12/02 05:43:50;;;;;;;17.35;7.43;;;3.00;99.90;;;;;;5054100;28;20405;-42
2022/12/02 05:46:18;;;;;;;20.70;7.53;;;3.00;99.90;;;;;;5059577;28;20500;-44
2022/12/02 05:48:45;;;;;;;18.88;8.00;;;3.00;99.90;;;;;;5059028;28;20493;-46
2022/12/02 05:51:13;;;;;;;16.70;7.57;;;3.00;99.90;;;;;;5057125;28;20390;-43
2022/12/02 05:53:40;;;;;;;19.58;7.07;;;3.00;99.90;;;;;;5062237;28;20037;-43
2022/12/02 05:56:12;;;;;;;21.88;7.88;;;2.90;99.90;;;;;;5061963;28;20040;-40
2022/12/02 05:58:41;;;;;;;16.67;6.50;;;3.00;99.90;;;;;;5056192;28;20029;-46
2022/12/02 06:01:19;;;;;;;21.05;8.43;;;2.90;99.90;;;;;;5057025;28;20059;-45
2022/12/02 06:03:46;;;;;;;17.33;6.72;;;2.90;99.90;;;;;;5057117;28;20043;-43
2022/12/02 06:06:11;;;;;;;16.35;6.55;;;2.90;99.90;;;;;;5057689;28;20067;-41
2022/12/02 06:08:37;;;;;;;16.60;7.25;;;2.90;99.90;;;;;;5060736;28;20071;-42
2022/12/02 06:11:21;;;;;;;21.48;8.00;;;2.90;99.90;;;;;;5062519;28;20067;-45
2022/12/02 06:13:47;;;;;;;19.42;7.15;;;2.90;99.90;;;;;;5058944;28;20037;-43
2022/12/02 06:16:20;;;;;;;23.80;7.68;;;2.90;99.90;;;;;;5054564;28;20043;-44
2022/12/02 06:18:46;;;;;;;23.05;9.07;;;2.90;99.90;;;;;;5061411;28;20040;-45
2022/12/02 06:21:17;;;;;;;21.88;8.73;;;2.80;99.90;;;;;;5059325;28;20035;-43
2022/12/02 06:23:45;;;;;;;23.27;7.65;;;2.90;99.90;;;;;;5064046;28;20076;-43
2022/12/02 06:26:16;;;;;;;24.02;8.70;;;2.90;99.90;;;;;;5058220;28;20068;-43
2022/12/02 06:28:44;;;;;;;23.20;8.93;;;2.80;99.90;;;;;;5056474;28;20041;-45
2022/12/02 06:31:17;;;;;;;19.85;8.00;;;2.80;99.90;;;;;;5058811;28;20045;-40
2022/12/02 06:33:46;;;;;;;25.90;9.43;;;2.80;99.90;;;;;;5051333;28;20448;-44
2022/12/02 06:36:21;;;;;;;22.17;8.63;;;2.80;99.90;;;;;;5053201;28;20503;-42
2022/12/02 06:38:52;;;;;;;23.50;8.77;;;2.80;99.90;;;;;;5052668;28;20052;-41
2022/12/02 06:41:21;;;;;;;23.95;9.15;;;2.80;99.90;;;;;;5055949;28;20052;-44
2022/12/02 06:46:34;;;;;;;25.95;9.10;;;2.80;99.90;;;;;;5054666;28;20044;-45
2022/12/02 06:49:12;;;;;;;25.52;9.82;;;2.80;99.90;;;;;;5058008;28;20053;-42
2022/12/02 06:51:38;;;;;;;20.83;9.02;;;2.70;99.90;;;;;;5061962;28;20076;-42
2022/12/02 06:54:14;;;;;;;23.52;8.95;;;2.70;99.90;;;;;;5058027;28;20068;-42
2022/12/02 06:56:39;;;;;;;22.33;9.45;;;2.70;99.90;;;;;;5056520;28;20490;-45
2022/12/02 06:59:11;;;;;;;19.67;7.90;;;2.70;99.90;;;;;;5050840;28;20094;-43
2022/12/02 07:01:40;;;;;;;23.55;8.63;;;2.70;99.90;;;;;;5055422;28;20458;-41
2022/12/02 07:04:08;;;;;;;27.33;9.93;;;2.70;99.90;;;;;;5058580;28;20053;-41
2022/12/02 07:06:43;;;;;;;24.20;10.15;;;2.70;99.90;;;;;;5056614;28;20080;-43
2022/12/02 07:09:17;;;;;;;23.27;9.60;;;2.70;99.90;;;;;;5058068;28;20040;-42
2022/12/02 07:11:52;;;;;;;21.98;9.00;;;2.70;99.90;;;;;;5054619;28;20039;-44
2022/12/02 07:14:28;;;;;;;24.75;10.02;;;2.70;99.90;;;;;;5054004;28;20045;-43
2022/12/02 07:17:21;;;;;;;25.48;10.32;;;2.70;99.90;;;;;;5062358;28;20502;-39
2022/12/02 07:20:06;;;;;;;27.45;10.93;;;2.70;99.90;;;;;;5063896;28;20064;-43
2022/12/02 07:22:43;;;;;;;24.15;10.35;;;2.70;99.90;;;;;;5058469;28;20142;-43
2022/12/02 07:25:09;;;;;;;27.63;9.95;;;2.70;99.90;;;;;;5061377;28;20080;-45
2022/12/02 07:27:38;;;;;;;27.55;10.25;;;2.70;99.90;;;;;;5063391;28;20076;-46
2022/12/02 07:30:32;;;;;;;30.17;10.40;;;2.60;99.90;;;;;;5054267;28;20524;-42
2022/12/02 07:32:58;;;;;;;27.58;10.80;;;2.70;99.90;;;;;;5053990;28;20053;-45
2022/12/02 07:35:24;;;;;;;26.08;11.27;;;2.70;99.90;;;;;;5057398;28;20040;-43
2022/12/02 07:37:50;;;;;;;27.67;10.18;;;2.60;99.90;;;;;;5052515;28;20166;-40
2022/12/02 07:40:17;;;;;;;31.08;12.02;;;2.60;99.90;;;;;;5063146;28;20115;-47
2022/12/02 07:42:43;;;;;;;30.38;11.43;;;2.60;99.90;;;;;;5059959;28;20045;-45
2022/12/02 07:45:15;;;;;;;32.42;11.70;;;2.60;99.90;;;;;;5054200;28;20513;-42
2022/12/02 07:47:40;;;;;;;35.38;12.07;;;2.60;99.90;;;;;;5065017;28;20123;-40
2022/12/02 07:50:07;;;;;;;27.85;10.50;;;2.60;99.90;;;;;;5057920;28;20552;-47
2022/12/02 07:52:33;;;;;;;34.08;12.43;;;2.60;99.90;;;;;;5071214;28;20116;-43
2022/12/02 07:55:00;;;;;;;30.60;12.15;;;2.60;99.90;;;;;;5067869;28;20041;-43
2022/12/02 07:57:26;;;;;;;31.73;11.32;;;2.60;99.90;;;;;;5068685;28;20039;-41
2022/12/02 07:59:52;;;;;;;32.10;11.40;;;2.60;99.90;;;;;;5056584;28;20111;-43
2022/12/02 08:02:18;;;;;;;33.47;11.57;;;2.60;99.90;;;;;;5059424;28;20149;-40
2022/12/02 08:04:44;;;;;;;35.22;11.95;;;2.60;99.90;;;;;;5065025;28;20139;-44
2022/12/02 08:07:09;;;;;;;38.35;13.10;;;2.70;99.90;;;;;;5055430;28;20512;-44
2022/12/02 08:09:35;;;;;;;32.67;12.52;;;2.70;99.90;;;;;;5072181;28;20036;-43
2022/12/02 08:12:00;;;;;;;33.13;11.90;;;2.70;99.90;;;;;;5062286;28;20136;-45
2022/12/02 08:14:26;;;;;;;30.52;11.82;;;2.80;99.90;;;;;;5068807;28;20037;-42
2022/12/02 08:16:52;;;;;;;31.88;11.45;;;2.80;99.90;;;;;;5056488;28;20051;-45
2022/12/02 08:19:17;;;;;;;38.80;12.52;;;2.80;99.90;;;;;;5057782;28;20039;-41
2022/12/02 08:21:43;;;;;;;33.42;12.35;;;2.90;99.90;;;;;;5059087;28;20071;-46
2022/12/02 08:24:09;;;;;;;28.67;11.57;;;2.90;99.90;;;;;;5041813;28;20044;-45
2022/12/02 08:26:35;;;;;;;33.10;11.70;;;2.90;99.90;;;;;;5059437;28;20087;-41
2022/12/02 08:29:00;;;;;;;34.15;10.75;;;2.90;99.90;;;;;;5067671;28;20529;-42
2022/12/02 08:31:27;;;;;;;32.17;12.20;;;2.90;99.90;;;;;;5045226;28;20069;-46
2022/12/02 08:33:53;;;;;;;36.88;12.85;;;2.90;99.90;;;;;;5056321;28;20509;-45
2022/12/02 08:36:20;;;;;;;32.90;11.82;;;2.80;99.90;;;;;;5061621;28;20052;-42
2022/12/02 08:38:46;;;;;;;30.85;11.73;;;2.80;99.90;;;;;;5058500;28;20032;-39
2022/12/02 08:41:13;;;;;;;32.25;11.38;;;2.80;99.90;;;;;;5057964;28;20080;-41
2022/12/02 08:43:38;;;;;;;30.48;11.43;;;2.80;99.90;;;;;;5060064;28;20489;-42
2022/12/02 08:46:05;;;;;;;28.65;12.10;;;2.90;99.90;;;;;;5060088;28;20043;-43
2022/12/02 08:48:31;;;;;;;33.30;11.70;;;2.90;99.90;;;;;;5059072;28;20063;-46
2022/12/02 08:50:57;;;;;;;31.17;11.38;;;2.90;99.90;;;;;;5059780;28;20044;-43
2022/12/02 08:53:23;;;;;;;31.25;11.60;;;2.90;99.90;;;;;;5056269;28;20498;-42
2022/12/02 08:55:51;;;;;;;32.85;11.85;;;2.90;99.90;;;;;;5059721;28;20123;-45
2022/12/02 08:58:17;;;;;;;27.98;11.02;;;2.90;99.90;;;;;;5056469;28;20074;-46
2022/12/02 09:00:43;;;;;;;30.98;11.80;;;3.00;99.90;;;;;;5056770;28;20029;-42
2022/12/02 09:03:09;;;;;;;31.55;12.10;;;3.00;99.90;;;;;;5061672;28;20408;-45
2022/12/02 09:05:37;;;;;;;26.40;10.90;;;3.00;99.90;;;;;;5056513;28;20037;-44
2022/12/02 09:08:03;;;;;;;34.15;11.88;;;3.00;99.90;;;;;;5054971;28;20044;-41
2022/12/02 09:10:29;;;;;;;28.55;12.20;;;3.00;99.90;;;;;;5059614;28;20040;-43
2022/12/02 09:12:55;;;;;;;35.15;11.50;;;3.00;99.90;;;;;;5059640;28;20048;-42
2022/12/02 09:15:21;;;;;;;32.33;11.70;;;3.00;99.90;;;;;;5057291;28;20061;-44
2022/12/02 09:17:47;;;;;;;28.00;10.55;;;3.00;99.90;;;;;;5063212;28;20398;-43
2022/12/02 09:20:13;;;;;;;29.08;11.38;;;3.00;99.90;;;;;;5054818;28;20052;-43
2022/12/02 09:22:39;;;;;;;31.42;10.07;;;3.00;99.90;;;;;;5057405;28;20414;-42
2022/12/02 09:25:05;;;;;;;27.52;10.52;;;3.00;99.90;;;;;;5063849;28;20131;-44
2022/12/02 09:27:31;;;;;;;33.35;10.55;;;3.00;99.90;;;;;;5057543;28;20098;-43
2022/12/02 09:29:56;;;;;;;29.10;9.90;;;3.00;99.90;;;;;;5062693;28;20694;-40
2022/12/02 09:32:22;;;;;;;33.08;11.50;;;3.00;99.90;;;;;;5059012;28;20676;-47
2022/12/02 09:34:48;;;;;;;35.50;11.85;;;3.00;99.90;;;;;;5063438;28;20044;-42
2022/12/02 09:37:14;;;;;;;27.42;10.32;;;3.00;99.90;;;;;;5061655;28;20029;-43
2022/12/02 09:39:39;;;;;;;30.77;10.68;;;3.10;99.90;;;;;;5054439;28;20048;-39
2022/12/02 09:42:07;;;;;;;28.73;11.45;;;3.10;99.90;;;;;;5053179;28;20045;-43
2022/12/02 09:44:33;;;;;;;29.75;10.85;;;3.10;99.90;;;;;;5063138;28;20028;-41
2022/12/02 09:46:59;;;;;;;28.65;10.55;;;3.10;99.90;;;;;;5055179;28;20078;-41
2022/12/02 09:49:24;;;;;;;24.95;9.30;;;3.10;99.90;;;;;;5064450;28;20037;-46
2022/12/02 09:51:57;;;;;;;27.63;10.68;;;3.10;99.90;;;;;;5063169;28;20044;-43
2022/12/02 09:54:22;;;;;;;33.78;11.68;;;3.20;99.90;;;;;;5062923;28;20408;-42
2022/12/02 09:56:48;;;;;;;27.25;10.70;;;3.20;99.90;;;;;;5055092;28;20472;-42
2022/12/02 09:59:16;;;;;;;26.95;9.90;;;3.20;99.90;;;;;;5051438;28;20048;-43
2022/12/02 10:01:45;;;;;;;32.47;11.38;;;3.20;99.90;;;;;;5056567;28;20045;-43
2022/12/02 10:04:15;;;;;;;24.95;9.98;;;3.20;99.90;;;;;;5056384;28;20075;-43
2022/12/02 10:06:42;;;;;;;26.73;10.00;;;3.20;99.90;;;;;;5057509;28;20377;-43
2022/12/02 10:09:15;;;;;;;24.75;10.65;;;3.20;99.90;;;;;;5057453;28;20051;-44
2022/12/02 10:11:41;;;;;;;27.73;9.73;;;3.30;99.90;;;;;;5052668;28;20067;-44
2022/12/02 10:14:10;;;;;;;26.63;9.60;;;3.30;99.90;;;;;;5057507;28;20029;-43
2022/12/02 10:16:37;;;;;;;26.17;10.00;;;3.30;99.90;;;;;;5057408;28;20060;-42
2022/12/02 10:19:04;;;;;;;29.52;9.98;;;3.30;99.90;;;;;;5058401;28;20067;-40
2022/12/02 10:21:30;;;;;;;27.58;10.60;;;3.40;99.90;;;;;;5051112;28;20047;-42
2022/12/02 10:23:59;;;;;;;28.15;11.02;;;3.40;99.90;;;;;;5059213;28;20429;-41
2022/12/02 10:26:26;;;;;;;24.70;9.93;;;3.40;99.90;;;;;;5057764;28;20058;-41
2022/12/02 10:29:11;;;;;;;27.30;9.77;;;3.50;99.90;;;;;;5060212;28;20036;-41
2022/12/02 10:31:48;;;;;;;26.73;9.68;;;3.50;99.90;;;;;;5053000;28;20567;-44
2022/12/02 10:34:19;;;;;;;26.92;10.02;;;3.50;99.90;;;;;;5060558;28;20049;-42
2022/12/02 10:36:45;;;;;;;26.85;10.30;;;3.50;99.90;;;;;;5061726;28;20052;-48
2022/12/02 10:39:21;;;;;;;32.08;10.65;;;3.50;99.90;;;;;;5050236;28;20513;-42
2022/12/02 10:42:07;;;;;;;34.58;11.52;;;3.60;99.90;;;;;;5051526;28;20400;-44
2022/12/02 10:44:38;;;;;;;26.77;10.65;;;3.50;99.90;;;;;;5059584;28;20116;-52
2022/12/02 10:47:19;;;;;;;29.88;11.38;;;3.50;99.90;;;;;;5057723;28;20135;-44
2022/12/02 10:49:48;;;;;;;28.65;9.82;;;3.50;99.90;;;;;;5055264;28;20397;-43
2022/12/02 10:52:15;;;;;;;29.73;10.55;;;3.60;99.90;;;;;;5050357;28;20060;-41
2022/12/02 10:54:45;;;;;;;33.45;11.40;;;3.60;99.90;;;;;;5050829;28;20076;-44
2022/12/02 10:57:32;;;;;;;30.08;11.13;;;3.70;99.90;;;;;;5059767;28;20029;-41
2022/12/02 11:00:03;;;;;;;24.17;9.32;;;3.70;99.90;;;;;;5058004;28;20052;-44
2022/12/02 11:02:37;;;;;;;25.63;9.43;;;3.70;99.90;;;;;;5059226;28;20092;-42
2022/12/02 11:05:17;;;;;;;27.13;9.52;;;3.70;99.90;;;;;;5072095;28;20049;-41
2022/12/02 11:08:15;;;;;;;27.92;9.27;;;3.70;99.90;;;;;;5074482;28;20068;-41
2022/12/02 11:10:45;;;;;;;22.02;8.20;;;3.70;99.90;;;;;;5055640;28;20521;-44
2022/12/02 11:13:17;;;;;;;26.67;8.95;;;3.70;99.90;;;;;;5045874;28;20376;-42
2022/12/02 11:15:50;;;;;;;26.00;9.37;;;3.70;99.90;;;;;;5055482;28;20040;-41
2022/12/02 11:18:22;;;;;;;24.48;8.95;;;3.70;99.90;;;;;;5055443;28;20094;-53
2022/12/02 11:20:52;;;;;;;27.45;9.35;;;3.70;99.90;;;;;;5058695;28;20379;-43
2022/12/02 11:23:29;;;;;;;24.30;8.35;;;3.80;99.90;;;;;;5065372;28;20041;-42
2022/12/02 11:25:56;;;;;;;25.52;9.43;;;3.80;99.90;;;;;;5054126;28;20077;-44
2022/12/02 11:28:27;;;;;;;25.38;9.30;;;3.80;99.90;;;;;;5060003;28;20045;-42
2022/12/02 11:31:08;;;;;;;22.73;9.88;;;3.70;99.90;;;;;;5056151;28;20387;-42
2022/12/02 11:33:43;;;;;;;25.17;9.15;;;3.70;99.90;;;;;;5053724;28;20658;-42
2022/12/02 11:36:16;;;;;;;27.50;9.10;;;3.70;99.90;;;;;;5055850;28;20556;-44
2022/12/02 11:39:02;;;;;;;31.15;9.00;;;3.70;99.90;;;;;;5062779;28;20044;-42
2022/12/02 11:41:46;;;;;;;25.90;9.73;;;3.70;99.90;;;;;;5045573;28;20537;-43
2022/12/02 11:44:29;;;;;;;26.85;9.90;;;3.60;99.90;;;;;;5037863;28;20056;-45
2022/12/02 11:47:22;;;;;;;25.67;9.52;;;3.60;99.90;;;;;;5044285;28;20056;-39
2022/12/02 11:49:47;;;;;;;24.20;9.52;;;3.60;99.90;;;;;;5033222;28;20071;-39
2022/12/02 11:52:22;;;;;;;24.40;8.88;;;3.50;99.90;;;;;;5041979;28;20487;-42
2022/12/02 11:55:01;;;;;;;24.10;8.73;;;3.50;99.90;;;;;;5034717;28;20523;-44
2022/12/02 11:57:30;;;;;;;23.75;8.43;;;3.50;99.90;;;;;;5033974;28;20044;-45
2022/12/02 11:59:57;;;;;;;22.63;8.35;;;3.50;99.90;;;;;;5034536;28;20049;-41
2022/12/02 12:02:24;;;;;;;20.48;7.95;;;3.50;99.90;;;;;;5036815;28;20033;-42
2022/12/02 12:05:06;;;;;;;21.65;8.80;;;3.50;99.90;;;;;;5048732;28;20056;-43
2022/12/02 12:07:49;;;;;;;19.88;9.13;;;3.40;99.90;;;;;;5030587;28;20073;-42
2022/12/02 12:10:22;;;;;;;23.35;9.10;;;3.40;99.90;;;;;;5038835;28;20045;-55
2022/12/02 12:13:22;;;;;;;21.92;9.35;;;3.40;99.90;;;;;;5039741;28;20055;-42
2022/12/02 12:15:51;;;;;;;21.88;8.68;;;3.40;99.90;;;;;;5039282;28;20033;-43
2022/12/02 12:18:34;;;;;;;21.55;9.77;;;3.40;99.90;;;;;;5041888;28;20045;-45
2022/12/02 12:21:00;;;;;;;28.30;9.63;;;3.40;99.90;;;;;;5042618;28;20045;-44
2022/12/02 12:23:31;;;;;;;21.48;9.05;;;3.40;99.90;;;;;;5050501;28;20082;-41
2022/12/02 12:25:57;;;;;;;22.90;9.07;;;3.40;99.90;;;;;;5013677;28;20507;-46
2022/12/02 12:28:23;;;;;;;25.33;9.40;;;3.40;99.90;;;;;;5031222;28;20116;-41
2022/12/02 12:30:49;;;;;;;25.30;9.57;;;3.40;99.90;;;;;;5021102;28;20056;-43
2022/12/02 12:33:14;;;;;;;24.10;9.65;;;3.40;99.90;;;;;;5038747;28;22315;-43
2022/12/02 12:35:40;;;;;;;27.80;11.02;;;3.40;99.90;;;;;;5042698;28;20033;-43
2022/12/02 12:38:05;;;;;;;26.35;10.88;;;3.40;99.90;;;;;;5034901;28;20057;-40
2022/12/02 12:40:31;;;;;;;29.00;12.18;;;3.40;99.90;;;;;;5053250;28;20143;-41
2022/12/02 12:42:57;;;;;;;33.75;12.35;;;3.40;99.90;;;;;;5056091;28;20464;-44
2022/12/02 12:45:22;;;;;;;37.80;13.40;;;3.40;99.90;;;;;;5056556;28;20544;-41
2022/12/02 12:47:48;;;;;;;29.27;13.20;;;3.40;99.90;;;;;;5061610;28;20476;-42
2022/12/02 12:50:14;;;;;;;31.08;12.38;;;3.40;99.90;;;;;;5056148;28;20032;-42
2022/12/02 12:52:39;;;;;;;35.00;13.23;;;3.30;99.90;;;;;;5059986;28;20489;-43